sensor_id;sensor_type;location;lat;lon;timestamp;pressure;altitude;pressure_sealevel;temperature;humidity
58668;BME280;59852;43.086;25.634;2024-01-15T00:00:38;98377.50;;;-2.08;nan
58668;BME280;59852;43.086;25.634;2024-01-15T00:03:03;98371.97;;;-1.93;nan
58668;BME280;59852;43.086;25.634;2024-01-15T00:05:29;98378.69;;;-1.89;nan
58668;BME280;59852;43.086;25.634;2024-01-15T00:07:54;98374.41;;;-1.87;nan
58668;BME280;59852;43.086;25.634;2024-01-15T00:10:20;98370.13;;;-1.88;nan
58668;BME280;59852;43.086;25.634;2024-01-15T00:12:45;98371.09;;;-1.92;nan
58668;BME280;59852;43.086;25.634;2024-01-15T00:15:10;98366.16;;;-1.99;nan
58668;BME280;59852;43.086;25.634;2024-01-15T00:17:36;98375.06;;;-2.13;nan
58668;BME280;59852;43.086;25.634;2024-01-15T00:20:01;98373.88;;;-1.99;nan
58668;BME280;59852;43.086;25.634;2024-01-15T00:22:26;98371.25;;;-1.98;nan
58668;BME280;59852;43.086;25.634;2024-01-15T00:24:52;98373.16;;;-2.05;nan
58668;BME280;59852;43.086;25.634;2024-01-15T00:27:17;98374.28;;;-1.84;nan
58668;BME280;59852;43.086;25.634;2024-01-15T00:29:43;98372.91;;;-1.95;nan
58668;BME280;59852;43.086;25.634;2024-01-15T00:32:08;98372.81;;;-1.92;nan
58668;BME280;59852;43.086;25.634;2024-01-15T00:34:33;98365.78;;;-2.17;nan
58668;BME280;59852;43.086;25.634;2024-01-15T00:36:59;98369.34;;;-2.22;nan
58668;BME280;59852;43.086;25.634;2024-01-15T00:39:24;98369.31;;;-2.21;nan
58668;BME280;59852;43.086;25.634;2024-01-15T00:41:49;98368.47;;;-2.21;nan
58668;BME280;59852;43.086;25.634;2024-01-15T00:44:15;98362.09;;;-2.07;nan
58668;BME280;59852;43.086;25.634;2024-01-15T00:46:44;98361.00;;;-1.98;nan
58668;BME280;59852;43.086;25.634;2024-01-15T00:49:09;98355.09;;;-2.00;nan
58668;BME280;59852;43.086;25.634;2024-01-15T00:51:35;98358.03;;;-2.14;nan
58668;BME280;59852;43.086;25.634;2024-01-15T00:54:00;98349.75;;;-2.23;nan
58668;BME280;59852;43.086;25.634;2024-01-15T00:56:25;98358.59;;;-2.35;nan
58668;BME280;59852;43.086;25.634;2024-01-15T00:58:51;98356.69;;;-2.28;nan
58668;BME280;59852;43.086;25.634;2024-01-15T01:01:16;98349.41;;;-2.44;nan
58668;BME280;59852;43.086;25.634;2024-01-15T01:03:41;98339.03;;;-2.39;nan
58668;BME280;59852;43.086;25.634;2024-01-15T01:06:07;98332.13;;;-2.36;nan
58668;BME280;59852;43.086;25.634;2024-01-15T01:08:32;98334.22;;;-2.19;nan
58668;BME280;59852;43.086;25.634;2024-01-15T01:10:57;98326.91;;;-2.00;nan
58668;BME280;59852;43.086;25.634;2024-01-15T01:13:23;98327.91;;;-2.38;nan
58668;BME280;59852;43.086;25.634;2024-01-15T01:15:48;98327.16;;;-2.42;nan
58668;BME280;59852;43.086;25.634;2024-01-15T01:18:13;98331.56;;;-2.47;nan
58668;BME280;59852;43.086;25.634;2024-01-15T01:20:39;98330.94;;;-2.56;nan
58668;BME280;59852;43.086;25.634;2024-01-15T01:23:04;98324.16;;;-2.57;nan
58668;BME280;59852;43.086;25.634;2024-01-15T01:25:30;98325.72;;;-2.52;nan
58668;BME280;59852;43.086;25.634;2024-01-15T01:27:55;98320.63;;;-2.21;nan
58668;BME280;59852;43.086;25.634;2024-01-15T01:30:20;98319.53;;;-2.12;nan
58668;BME280;59852;43.086;25.634;2024-01-15T01:32:46;98312.50;;;-2.04;nan
58668;BME280;59852;43.086;25.634;2024-01-15T01:35:12;98308.69;;;-1.91;nan
58668;BME280;59852;43.086;25.634;2024-01-15T01:37:37;98307.28;;;-2.01;nan
58668;BME280;59852;43.086;25.634;2024-01-15T01:40:03;98302.06;;;-1.98;nan
58668;BME280;59852;43.086;25.634;2024-01-15T01:42:28;98305.59;;;-2.02;nan
58668;BME280;59852;43.086;25.634;2024-01-15T01:44:53;98297.59;;;-1.91;nan
58668;BME280;59852;43.086;25.634;2024-01-15T01:47:19;98304.75;;;-2.03;nan
58668;BME280;59852;43.086;25.634;2024-01-15T01:49:45;98301.94;;;-1.93;nan
58668;BME280;59852;43.086;25.634;2024-01-15T01:52:10;98291.69;;;-1.93;nan
58668;BME280;59852;43.086;25.634;2024-01-15T01:54:36;98291.22;;;-2.06;nan
58668;BME280;59852;43.086;25.634;2024-01-15T01:57:02;98288.75;;;-2.11;nan
58668;BME280;59852;43.086;25.634;2024-01-15T01:59:28;98293.69;;;-2.03;nan
58668;BME280;59852;43.086;25.634;2024-01-15T02:01:55;98288.19;;;-1.91;nan
58668;BME280;59852;43.086;25.634;2024-01-15T02:04:21;98283.81;;;-1.87;nan
58668;BME280;59852;43.086;25.634;2024-01-15T02:06:48;98280.72;;;-1.98;nan
58668;BME280;59852;43.086;25.634;2024-01-15T02:09:13;98279.09;;;-2.01;nan
58668;BME280;59852;43.086;25.634;2024-01-15T02:11:40;98272.94;;;-2.26;nan
58668;BME280;59852;43.086;25.634;2024-01-15T02:14:06;98273.09;;;-2.31;nan
58668;BME280;59852;43.086;25.634;2024-01-15T02:16:31;98266.75;;;-2.49;nan
58668;BME280;59852;43.086;25.634;2024-01-15T02:18:56;98261.66;;;-2.50;nan
58668;BME280;59852;43.086;25.634;2024-01-15T02:21:22;98266.38;;;-2.35;nan
58668;BME280;59852;43.086;25.634;2024-01-15T02:23:47;98270.41;;;-2.26;nan
58668;BME280;59852;43.086;25.634;2024-01-15T02:26:12;98259.28;;;-2.25;nan
58668;BME280;59852;43.086;25.634;2024-01-15T02:28:38;98259.28;;;-2.25;nan
58668;BME280;59852;43.086;25.634;2024-01-15T02:31:04;98256.22;;;-2.38;nan
58668;BME280;59852;43.086;25.634;2024-01-15T02:33:29;98257.19;;;-2.42;nan
58668;BME280;59852;43.086;25.634;2024-01-15T02:35:54;98257.22;;;-2.44;nan
58668;BME280;59852;43.086;25.634;2024-01-15T02:38:20;98252.16;;;-2.45;nan
58668;BME280;59852;43.086;25.634;2024-01-15T02:40:45;98252.00;;;-2.41;nan
58668;BME280;59852;43.086;25.634;2024-01-15T02:43:10;98255.03;;;-2.57;nan
58668;BME280;59852;43.086;25.634;2024-01-15T02:45:36;98259.72;;;-2.73;nan
58668;BME280;59852;43.086;25.634;2024-01-15T02:48:01;98254.78;;;-2.81;nan
58668;BME280;59852;43.086;25.634;2024-01-15T02:50:26;98251.22;;;-2.75;nan
58668;BME280;59852;43.086;25.634;2024-01-15T02:52:52;98249.91;;;-2.57;nan
58668;BME280;59852;43.086;25.634;2024-01-15T02:55:17;98252.59;;;-2.62;nan
58668;BME280;59852;43.086;25.634;2024-01-15T02:57:42;98247.53;;;-2.64;nan
58668;BME280;59852;43.086;25.634;2024-01-15T03:00:08;98241.28;;;-2.53;nan
58668;BME280;59852;43.086;25.634;2024-01-15T03:02:37;98238.69;;;-2.86;nan
58668;BME280;59852;43.086;25.634;2024-01-15T03:05:05;98228.88;;;-3.01;nan
58668;BME280;59852;43.086;25.634;2024-01-15T03:07:30;98239.19;;;-3.04;nan
58668;BME280;59852;43.086;25.634;2024-01-15T03:09:55;98237.72;;;-2.80;nan
58668;BME280;59852;43.086;25.634;2024-01-15T03:12:21;98229.28;;;-2.84;nan
58668;BME280;59852;43.086;25.634;2024-01-15T03:14:46;98242.19;;;-2.89;nan
58668;BME280;59852;43.086;25.634;2024-01-15T03:17:11;98240.06;;;-2.73;nan
58668;BME280;59852;43.086;25.634;2024-01-15T03:19:37;98241.72;;;-2.70;nan
58668;BME280;59852;43.086;25.634;2024-01-15T03:22:02;98246.09;;;-2.75;nan
58668;BME280;59852;43.086;25.634;2024-01-15T03:24:28;98243.53;;;-2.74;nan
58668;BME280;59852;43.086;25.634;2024-01-15T03:26:54;98245.25;;;-2.74;nan
58668;BME280;59852;43.086;25.634;2024-01-15T03:29:19;98242.09;;;-2.85;nan
58668;BME280;59852;43.086;25.634;2024-01-15T03:31:44;98242.97;;;-2.85;nan
58668;BME280;59852;43.086;25.634;2024-01-15T03:34:10;98243.81;;;-3.20;nan
58668;BME280;59852;43.086;25.634;2024-01-15T03:36:35;98240.22;;;-3.11;nan
58668;BME280;59852;43.086;25.634;2024-01-15T03:39:00;98245.00;;;-2.99;nan
58668;BME280;59852;43.086;25.634;2024-01-15T03:41:26;98245.50;;;-3.19;nan
58668;BME280;59852;43.086;25.634;2024-01-15T03:43:51;98246.84;;;-3.04;nan
58668;BME280;59852;43.086;25.634;2024-01-15T03:46:16;98248.69;;;-3.09;nan
58668;BME280;59852;43.086;25.634;2024-01-15T03:48:41;98251.22;;;-3.09;nan
58668;BME280;59852;43.086;25.634;2024-01-15T03:51:07;98246.16;;;-3.11;nan
58668;BME280;59852;43.086;25.634;2024-01-15T03:53:32;98246.25;;;-3.15;nan
58668;BME280;59852;43.086;25.634;2024-01-15T03:55:57;98247.97;;;-3.16;nan
58668;BME280;59852;43.086;25.634;2024-01-15T03:58:23;98237.59;;;-3.10;nan
58668;BME280;59852;43.086;25.634;2024-01-15T04:00:48;98240.03;;;-3.04;nan
58668;BME280;59852;43.086;25.634;2024-01-15T04:03:14;98233.84;;;-2.97;nan
58668;BME280;59852;43.086;25.634;2024-01-15T04:05:39;98233.25;;;-3.06;nan
58668;BME280;59852;43.086;25.634;2024-01-15T04:08:04;98234.47;;;-2.87;nan
58668;BME280;59852;43.086;25.634;2024-01-15T04:10:30;98235.16;;;-2.80;nan
58668;BME280;59852;43.086;25.634;2024-01-15T04:12:55;98232.41;;;-2.73;nan
58668;BME280;59852;43.086;25.634;2024-01-15T04:15:20;98228.59;;;-2.91;nan
58668;BME280;59852;43.086;25.634;2024-01-15T04:17:46;98222.81;;;-2.99;nan
58668;BME280;59852;43.086;25.634;2024-01-15T04:20:11;98225.28;;;-2.94;nan
58668;BME280;59852;43.086;25.634;2024-01-15T04:22:36;98225.16;;;-2.90;nan
58668;BME280;59852;43.086;25.634;2024-01-15T04:25:02;98219.06;;;-2.85;nan
58668;BME280;59852;43.086;25.634;2024-01-15T04:27:28;98217.25;;;-2.80;nan
58668;BME280;59852;43.086;25.634;2024-01-15T04:29:53;98222.13;;;-2.71;nan
58668;BME280;59852;43.086;25.634;2024-01-15T04:32:18;98217.94;;;-2.74;nan
58668;BME280;59852;43.086;25.634;2024-01-15T04:34:44;98215.59;;;-2.83;nan
58668;BME280;59852;43.086;25.634;2024-01-15T04:37:09;98212.31;;;-2.88;nan
58668;BME280;59852;43.086;25.634;2024-01-15T04:39:34;98211.50;;;-2.90;nan
58668;BME280;59852;43.086;25.634;2024-01-15T04:42:00;98206.75;;;-2.71;nan
58668;BME280;59852;43.086;25.634;2024-01-15T04:44:25;98209.31;;;-2.40;nan
58668;BME280;59852;43.086;25.634;2024-01-15T04:46:50;98207.25;;;-2.27;nan
58668;BME280;59852;43.086;25.634;2024-01-15T04:49:16;98203.47;;;-2.14;nan
58668;BME280;59852;43.086;25.634;2024-01-15T04:51:41;98204.66;;;-2.26;nan
58668;BME280;59852;43.086;25.634;2024-01-15T04:54:06;98202.13;;;-2.27;nan
58668;BME280;59852;43.086;25.634;2024-01-15T04:56:32;98213.31;;;-2.30;nan
58668;BME280;59852;43.086;25.634;2024-01-15T04:58:57;98206.88;;;-2.14;nan
58668;BME280;59852;43.086;25.634;2024-01-15T05:01:22;98195.47;;;-2.04;nan
58668;BME280;59852;43.086;25.634;2024-01-15T05:03:48;98201.16;;;-1.94;nan
58668;BME280;59852;43.086;25.634;2024-01-15T05:06:14;98190.59;;;-1.83;nan
58668;BME280;59852;43.086;25.634;2024-01-15T05:08:39;98186.28;;;-1.83;nan
58668;BME280;59852;43.086;25.634;2024-01-15T05:11:05;98185.19;;;-1.74;nan
58668;BME280;59852;43.086;25.634;2024-01-15T05:13:30;98187.50;;;-1.66;nan
58668;BME280;59852;43.086;25.634;2024-01-15T05:15:55;98190.06;;;-1.66;nan
58668;BME280;59852;43.086;25.634;2024-01-15T05:18:21;98191.66;;;-2.80;nan
58668;BME280;59852;43.086;25.634;2024-01-15T05:20:46;98191.41;;;-3.04;nan
58668;BME280;59852;43.086;25.634;2024-01-15T05:23:11;98185.94;;;-3.23;nan
58668;BME280;59852;43.086;25.634;2024-01-15T05:25:37;98190.75;;;-3.12;nan
58668;BME280;59852;43.086;25.634;2024-01-15T05:28:02;98191.84;;;-2.88;nan
58668;BME280;59852;43.086;25.634;2024-01-15T05:30:27;98193.03;;;-2.38;nan
58668;BME280;59852;43.086;25.634;2024-01-15T05:32:53;98186.75;;;-2.27;nan
58668;BME280;59852;43.086;25.634;2024-01-15T05:35:18;98178.38;;;-2.33;nan
58668;BME280;59852;43.086;25.634;2024-01-15T05:37:44;98183.41;;;-2.29;nan
58668;BME280;59852;43.086;25.634;2024-01-15T05:40:10;98179.91;;;-2.27;nan
58668;BME280;59852;43.086;25.634;2024-01-15T05:42:35;98177.59;;;-2.35;nan
58668;BME280;59852;43.086;25.634;2024-01-15T05:45:01;98172.47;;;-2.35;nan
58668;BME280;59852;43.086;25.634;2024-01-15T05:47:29;98176.69;;;-2.34;nan
58668;BME280;59852;43.086;25.634;2024-01-15T05:49:54;98169.72;;;-2.28;nan
58668;BME280;59852;43.086;25.634;2024-01-15T05:52:20;98161.22;;;-2.31;nan
58668;BME280;59852;43.086;25.634;2024-01-15T05:54:46;98162.69;;;-2.22;nan
58668;BME280;59852;43.086;25.634;2024-01-15T05:57:12;98153.06;;;-2.14;nan
58668;BME280;59852;43.086;25.634;2024-01-15T05:59:37;98157.97;;;-2.06;nan
58668;BME280;59852;43.086;25.634;2024-01-15T06:02:03;98156.53;;;-1.88;nan
58668;BME280;59852;43.086;25.634;2024-01-15T06:04:28;98157.94;;;-1.78;nan
58668;BME280;59852;43.086;25.634;2024-01-15T06:06:53;98153.06;;;-1.86;nan
58668;BME280;59852;43.086;25.634;2024-01-15T06:09:19;98155.72;;;-1.89;nan
58668;BME280;59852;43.086;25.634;2024-01-15T06:11:44;98149.63;;;-1.85;nan
58668;BME280;59852;43.086;25.634;2024-01-15T06:14:09;98152.75;;;-1.75;nan
58668;BME280;59852;43.086;25.634;2024-01-15T06:16:34;98145.59;;;-1.65;nan
58668;BME280;59852;43.086;25.634;2024-01-15T06:19:00;98135.81;;;-1.54;nan
58668;BME280;59852;43.086;25.634;2024-01-15T06:21:25;98136.25;;;-1.41;nan
58668;BME280;59852;43.086;25.634;2024-01-15T06:23:50;98133.97;;;-1.24;nan
58668;BME280;59852;43.086;25.634;2024-01-15T06:26:16;98136.78;;;-1.32;nan
58668;BME280;59852;43.086;25.634;2024-01-15T06:28:41;98143.66;;;-1.32;nan
58668;BME280;59852;43.086;25.634;2024-01-15T06:31:07;98135.75;;;-1.26;nan
58668;BME280;59852;43.086;25.634;2024-01-15T06:33:32;98138.16;;;-1.22;nan
58668;BME280;59852;43.086;25.634;2024-01-15T06:35:57;98141.00;;;-1.04;nan
58668;BME280;59852;43.086;25.634;2024-01-15T06:38:23;98135.94;;;-0.82;nan
58668;BME280;59852;43.086;25.634;2024-01-15T06:40:50;98131.09;;;0.24;nan
58668;BME280;59852;43.086;25.634;2024-01-15T06:43:16;98130.72;;;0.75;nan
58668;BME280;59852;43.086;25.634;2024-01-15T06:45:42;98117.00;;;0.12;nan
58668;BME280;59852;43.086;25.634;2024-01-15T06:48:07;98123.56;;;-0.03;nan
58668;BME280;59852;43.086;25.634;2024-01-15T06:50:33;98109.47;;;-0.14;nan
58668;BME280;59852;43.086;25.634;2024-01-15T06:52:58;98113.00;;;-0.17;nan
58668;BME280;59852;43.086;25.634;2024-01-15T06:55:24;98109.81;;;-0.02;nan
58668;BME280;59852;43.086;25.634;2024-01-15T06:57:49;98099.69;;;0.58;nan
58668;BME280;59852;43.086;25.634;2024-01-15T07:00:14;98096.09;;;1.03;nan
58668;BME280;59852;43.086;25.634;2024-01-15T07:02:40;98089.47;;;2.46;nan
58668;BME280;59852;43.086;25.634;2024-01-15T07:05:05;98092.34;;;2.40;nan
58668;BME280;59852;43.086;25.634;2024-01-15T07:07:31;98097.09;;;3.17;nan
58668;BME280;59852;43.086;25.634;2024-01-15T07:09:56;98089.06;;;6.60;nan
58668;BME280;59852;43.086;25.634;2024-01-15T07:12:22;98089.00;;;10.72;nan
58668;BME280;59852;43.086;25.634;2024-01-15T07:14:47;98093.31;;;12.16;nan
58668;BME280;59852;43.086;25.634;2024-01-15T07:17:13;98087.78;;;13.15;nan
58668;BME280;59852;43.086;25.634;2024-01-15T07:19:38;98094.22;;;9.29;nan
58668;BME280;59852;43.086;25.634;2024-01-15T07:22:03;98091.22;;;11.18;nan
58668;BME280;59852;43.086;25.634;2024-01-15T07:24:29;98089.03;;;10.93;nan
58668;BME280;59852;43.086;25.634;2024-01-15T07:26:54;98096.72;;;11.66;nan
58668;BME280;59852;43.086;25.634;2024-01-15T07:29:20;98099.28;;;12.95;nan
58668;BME280;59852;43.086;25.634;2024-01-15T07:31:51;98096.63;;;10.43;nan
58668;BME280;59852;43.086;25.634;2024-01-15T07:34:17;98096.09;;;7.10;nan
58668;BME280;59852;43.086;25.634;2024-01-15T07:36:46;98099.63;;;7.22;nan
58668;BME280;59852;43.086;25.634;2024-01-15T07:39:11;98093.09;;;11.06;nan
58668;BME280;59852;43.086;25.634;2024-01-15T07:41:36;98087.69;;;14.19;nan
58668;BME280;59852;43.086;25.634;2024-01-15T07:44:02;98077.34;;;14.71;nan
58668;BME280;59852;43.086;25.634;2024-01-15T07:46:27;98082.69;;;13.98;nan
58668;BME280;59852;43.086;25.634;2024-01-15T07:48:52;98084.28;;;13.81;nan
58668;BME280;59852;43.086;25.634;2024-01-15T07:51:24;98080.75;;;13.63;nan
58668;BME280;59852;43.086;25.634;2024-01-15T07:53:50;98072.66;;;14.82;nan
58668;BME280;59852;43.086;25.634;2024-01-15T07:56:15;98078.44;;;15.30;nan
58668;BME280;59852;43.086;25.634;2024-01-15T07:58:41;98087.94;;;15.23;nan
58668;BME280;59852;43.086;25.634;2024-01-15T08:01:06;98075.19;;;16.62;nan
58668;BME280;59852;43.086;25.634;2024-01-15T08:03:31;98082.53;;;16.26;nan
58668;BME280;59852;43.086;25.634;2024-01-15T08:05:57;98084.75;;;17.29;nan
58668;BME280;59852;43.086;25.634;2024-01-15T08:08:24;98074.53;;;16.77;nan
58668;BME280;59852;43.086;25.634;2024-01-15T08:10:50;98068.91;;;17.84;nan
58668;BME280;59852;43.086;25.634;2024-01-15T08:13:15;98064.69;;;14.39;nan
58668;BME280;59852;43.086;25.634;2024-01-15T08:15:41;98049.94;;;14.81;nan
58668;BME280;59852;43.086;25.634;2024-01-15T08:18:06;98056.38;;;11.17;nan
58668;BME280;59852;43.086;25.634;2024-01-15T08:20:32;98050.66;;;8.26;nan
58668;BME280;59852;43.086;25.634;2024-01-15T08:22:57;98050.03;;;7.62;nan
58668;BME280;59852;43.086;25.634;2024-01-15T08:25:22;98053.00;;;7.81;nan
58668;BME280;59852;43.086;25.634;2024-01-15T08:27:47;98057.72;;;6.49;nan
58668;BME280;59852;43.086;25.634;2024-01-15T08:30:13;98053.16;;;7.54;nan
58668;BME280;59852;43.086;25.634;2024-01-15T08:32:38;98057.41;;;8.52;nan
58668;BME280;59852;43.086;25.634;2024-01-15T08:35:07;98048.84;;;7.29;nan
58668;BME280;59852;43.086;25.634;2024-01-15T08:37:32;98049.25;;;6.59;nan
58668;BME280;59852;43.086;25.634;2024-01-15T08:39:58;98048.59;;;6.16;nan
58668;BME280;59852;43.086;25.634;2024-01-15T08:42:23;98045.38;;;5.71;nan
58668;BME280;59852;43.086;25.634;2024-01-15T08:44:49;98039.56;;;5.39;nan
58668;BME280;59852;43.086;25.634;2024-01-15T08:47:15;98040.78;;;5.48;nan
58668;BME280;59852;43.086;25.634;2024-01-15T08:49:40;98042.91;;;5.56;nan
58668;BME280;59852;43.086;25.634;2024-01-15T08:52:08;98048.38;;;5.37;nan
58668;BME280;59852;43.086;25.634;2024-01-15T08:54:33;98038.19;;;5.48;nan
58668;BME280;59852;43.086;25.634;2024-01-15T08:57:00;98024.88;;;6.08;nan
58668;BME280;59852;43.086;25.634;2024-01-15T08:59:25;98028.13;;;6.12;nan
58668;BME280;59852;43.086;25.634;2024-01-15T09:01:54;98024.72;;;6.11;nan
58668;BME280;59852;43.086;25.634;2024-01-15T09:04:19;98013.84;;;5.78;nan
58668;BME280;59852;43.086;25.634;2024-01-15T09:06:45;98008.97;;;5.73;nan
58668;BME280;59852;43.086;25.634;2024-01-15T09:09:11;98015.06;;;6.13;nan
58668;BME280;59852;43.086;25.634;2024-01-15T09:11:37;98004.34;;;6.18;nan
58668;BME280;59852;43.086;25.634;2024-01-15T09:14:02;98000.56;;;5.55;nan
58668;BME280;59852;43.086;25.634;2024-01-15T09:16:28;97995.31;;;5.84;nan
58668;BME280;59852;43.086;25.634;2024-01-15T09:18:53;97990.06;;;5.71;nan
58668;BME280;59852;43.086;25.634;2024-01-15T09:21:19;97982.09;;;5.74;nan
58668;BME280;59852;43.086;25.634;2024-01-15T09:23:45;97974.91;;;5.78;nan
58668;BME280;59852;43.086;25.634;2024-01-15T09:26:10;97977.41;;;5.79;nan
58668;BME280;59852;43.086;25.634;2024-01-15T09:28:35;97975.47;;;5.56;nan
58668;BME280;59852;43.086;25.634;2024-01-15T09:31:01;97963.19;;;5.72;nan
58668;BME280;59852;43.086;25.634;2024-01-15T09:33:26;97960.50;;;5.73;nan
58668;BME280;59852;43.086;25.634;2024-01-15T09:35:51;97958.66;;;5.88;nan
58668;BME280;59852;43.086;25.634;2024-01-15T09:38:17;97952.19;;;5.95;nan
58668;BME280;59852;43.086;25.634;2024-01-15T09:40:44;97941.53;;;6.13;nan
58668;BME280;59852;43.086;25.634;2024-01-15T09:43:11;97933.94;;;6.10;nan
58668;BME280;59852;43.086;25.634;2024-01-15T09:45:37;97921.69;;;6.12;nan
58668;BME280;59852;43.086;25.634;2024-01-15T09:48:02;97924.69;;;6.06;nan
58668;BME280;59852;43.086;25.634;2024-01-15T09:50:27;97917.94;;;6.16;nan
58668;BME280;59852;43.086;25.634;2024-01-15T09:52:53;97912.25;;;6.11;nan
58668;BME280;59852;43.086;25.634;2024-01-15T09:55:19;97906.63;;;6.17;nan
58668;BME280;59852;43.086;25.634;2024-01-15T09:57:44;97909.22;;;6.17;nan
58668;BME280;59852;43.086;25.634;2024-01-15T10:00:11;97893.25;;;6.10;nan
58668;BME280;59852;43.086;25.634;2024-01-15T10:02:36;97886.28;;;6.11;nan
58668;BME280;59852;43.086;25.634;2024-01-15T10:05:02;97877.00;;;5.94;nan
58668;BME280;59852;43.086;25.634;2024-01-15T10:07:27;97871.50;;;5.98;nan
58668;BME280;59852;43.086;25.634;2024-01-15T10:09:54;97867.78;;;6.02;nan
58668;BME280;59852;43.086;25.634;2024-01-15T10:12:21;97864.47;;;6.13;nan
58668;BME280;59852;43.086;25.634;2024-01-15T10:14:47;97858.78;;;6.21;nan
58668;BME280;59852;43.086;25.634;2024-01-15T10:17:15;97845.16;;;6.30;nan
58668;BME280;59852;43.086;25.634;2024-01-15T10:19:40;97834.16;;;6.39;nan
58668;BME280;59852;43.086;25.634;2024-01-15T10:22:07;97836.94;;;6.36;nan
58668;BME280;59852;43.086;25.634;2024-01-15T10:24:32;97833.63;;;6.21;nan
58668;BME280;59852;43.086;25.634;2024-01-15T10:27:07;97826.53;;;6.49;nan
58668;BME280;59852;43.086;25.634;2024-01-15T10:29:32;97828.31;;;6.36;nan
58668;BME280;59852;43.086;25.634;2024-01-15T10:31:58;97824.25;;;6.44;nan
58668;BME280;59852;43.086;25.634;2024-01-15T10:34:24;97829.13;;;6.49;nan
58668;BME280;59852;43.086;25.634;2024-01-15T10:36:50;97813.13;;;6.55;nan
58668;BME280;59852;43.086;25.634;2024-01-15T10:39:20;97814.13;;;6.65;nan
58668;BME280;59852;43.086;25.634;2024-01-15T10:41:46;97811.72;;;6.75;nan
58668;BME280;59852;43.086;25.634;2024-01-15T10:44:11;97810.25;;;7.07;nan
58668;BME280;59852;43.086;25.634;2024-01-15T10:46:36;97795.47;;;7.08;nan
58668;BME280;59852;43.086;25.634;2024-01-15T10:49:02;97795.59;;;7.06;nan
58668;BME280;59852;43.086;25.634;2024-01-15T10:51:27;97785.69;;;7.11;nan
58668;BME280;59852;43.086;25.634;2024-01-15T10:53:53;97775.84;;;7.04;nan
58668;BME280;59852;43.086;25.634;2024-01-15T10:56:20;97775.63;;;7.31;nan
58668;BME280;59852;43.086;25.634;2024-01-15T10:58:46;97774.59;;;7.44;nan
58668;BME280;59852;43.086;25.634;2024-01-15T11:01:12;97771.13;;;7.33;nan
58668;BME280;59852;43.086;25.634;2024-01-15T11:03:38;97763.59;;;7.41;nan
58668;BME280;59852;43.086;25.634;2024-01-15T11:06:03;97765.47;;;7.39;nan
58668;BME280;59852;43.086;25.634;2024-01-15T11:08:40;97767.06;;;7.53;nan
58668;BME280;59852;43.086;25.634;2024-01-15T11:11:07;97746.88;;;7.79;nan
58668;BME280;59852;43.086;25.634;2024-01-15T11:16:01;97754.31;;;7.72;nan
58668;BME280;59852;43.086;25.634;2024-01-15T11:18:31;97736.81;;;7.74;nan
58668;BME280;59852;43.086;25.634;2024-01-15T11:23:59;97738.59;;;7.85;nan
58668;BME280;59852;43.086;25.634;2024-01-15T11:26:34;97731.72;;;7.84;nan
58668;BME280;59852;43.086;25.634;2024-01-15T11:29:07;97731.41;;;7.99;nan
58668;BME280;59852;43.086;25.634;2024-01-15T11:34:05;97732.59;;;8.07;nan
58668;BME280;59852;43.086;25.634;2024-01-15T11:41:52;97715.31;;;8.39;nan
58668;BME280;59852;43.086;25.634;2024-01-15T11:44:17;97702.97;;;8.19;nan
58668;BME280;59852;43.086;25.634;2024-01-15T11:46:43;97709.38;;;8.48;nan
58668;BME280;59852;43.086;25.634;2024-01-15T11:49:19;97704.38;;;8.23;nan
58668;BME280;59852;43.086;25.634;2024-01-15T11:51:50;97702.41;;;8.26;nan
58668;BME280;59852;43.086;25.634;2024-01-15T11:54:16;97703.44;;;8.13;nan
58668;BME280;59852;43.086;25.634;2024-01-15T11:56:41;97693.03;;;8.01;nan
58668;BME280;59852;43.086;25.634;2024-01-15T11:59:07;97700.13;;;8.33;nan
58668;BME280;59852;43.086;25.634;2024-01-15T12:01:33;97688.53;;;8.15;nan
58668;BME280;59852;43.086;25.634;2024-01-15T12:03:58;97681.19;;;8.20;nan
58668;BME280;59852;43.086;25.634;2024-01-15T12:06:24;97678.09;;;8.15;nan
58668;BME280;59852;43.086;25.634;2024-01-15T12:08:49;97676.34;;;8.38;nan
58668;BME280;59852;43.086;25.634;2024-01-15T12:11:14;97671.13;;;8.38;nan
58668;BME280;59852;43.086;25.634;2024-01-15T12:13:42;97668.91;;;8.76;nan
58668;BME280;59852;43.086;25.634;2024-01-15T12:16:08;97660.66;;;8.60;nan
58668;BME280;59852;43.086;25.634;2024-01-15T12:18:33;97673.69;;;8.92;nan
58668;BME280;59852;43.086;25.634;2024-01-15T12:20:58;97672.13;;;8.69;nan
58668;BME280;59852;43.086;25.634;2024-01-15T12:23:24;97677.53;;;8.77;nan
58668;BME280;59852;43.086;25.634;2024-01-15T12:25:49;97672.47;;;8.64;nan
58668;BME280;59852;43.086;25.634;2024-01-15T12:28:15;97666.13;;;8.57;nan
58668;BME280;59852;43.086;25.634;2024-01-15T12:30:40;97670.72;;;8.53;nan
58668;BME280;59852;43.086;25.634;2024-01-15T12:33:06;97665.53;;;8.42;nan
58668;BME280;59852;43.086;25.634;2024-01-15T12:35:33;97671.13;;;8.26;nan
58668;BME280;59852;43.086;25.634;2024-01-15T12:38:01;97663.81;;;7.98;nan
58668;BME280;59852;43.086;25.634;2024-01-15T12:40:30;97666.75;;;8.04;nan
58668;BME280;59852;43.086;25.634;2024-01-15T12:42:57;97666.19;;;8.01;nan
58668;BME280;59852;43.086;25.634;2024-01-15T12:45:22;97671.50;;;8.11;nan
58668;BME280;59852;43.086;25.634;2024-01-15T12:47:49;97663.84;;;7.87;nan
58668;BME280;59852;43.086;25.634;2024-01-15T12:50:16;97667.25;;;7.76;nan
58668;BME280;59852;43.086;25.634;2024-01-15T12:52:41;97666.78;;;7.71;nan
58668;BME280;59852;43.086;25.634;2024-01-15T12:55:07;97669.50;;;7.92;nan
58668;BME280;59852;43.086;25.634;2024-01-15T12:57:34;97666.66;;;7.72;nan
58668;BME280;59852;43.086;25.634;2024-01-15T12:59:59;97657.44;;;7.57;nan
58668;BME280;59852;43.086;25.634;2024-01-15T13:02:25;97664.38;;;7.45;nan
58668;BME280;59852;43.086;25.634;2024-01-15T13:04:50;97663.53;;;7.45;nan
58668;BME280;59852;43.086;25.634;2024-01-15T13:07:16;97639.09;;;7.59;nan
58668;BME280;59852;43.086;25.634;2024-01-15T13:09:42;97634.34;;;7.75;nan
58668;BME280;59852;43.086;25.634;2024-01-15T13:12:08;97637.06;;;7.73;nan
58668;BME280;59852;43.086;25.634;2024-01-15T13:14:33;97634.59;;;7.83;nan
58668;BME280;59852;43.086;25.634;2024-01-15T13:16:59;97623.47;;;7.81;nan
58668;BME280;59852;43.086;25.634;2024-01-15T13:19:24;97627.97;;;7.68;nan